Time;durP1;ratioP1;P1;durP2;ratioP2;P2;SDS_P1;SDS_P2;PMS_P1;PMS_P2;Temp;Humidity;BMP_temperature;BMP_pressure;BME280_temperature;BME280_humidity;BME280_pressure;Samples;Min_cycle;Max_cycle;Signal;HPM_P1;HPM_P2
2023/07/14 00:01:52;;;;;;;2.43;2.33;;;16.50;1.00;;;;;;5070828;28;20717;-65
2023/07/14 00:04:31;;;;;;;6.33;2.53;;;16.50;1.00;;;;;;5067841;28;20198;-65
2023/07/14 00:07:00;;;;;;;3.53;2.50;;;16.50;1.00;;;;;;5050640;28;20191;-65
2023/07/14 00:09:30;;;;;;;3.03;2.73;;;16.40;1.00;;;;;;5053154;28;20306;-65
2023/07/14 00:11:59;;;;;;;3.10;2.90;;;16.30;7.20;;;;;;5055194;28;20188;-66
2023/07/14 00:14:29;;;;;;;5.03;2.73;;;16.30;7.40;;;;;;5063185;28;20220;-66
2023/07/14 00:16:58;;;;;;;4.97;2.77;;;16.30;8.40;;;;;;5070236;28;20199;-65
2023/07/14 00:19:27;;;;;;;3.27;2.90;;;16.30;6.30;;;;;;5062939;28;20824;-66
2023/07/14 00:21:55;;;;;;;3.20;2.90;;;16.30;5.90;;;;;;5064860;28;20379;-66
2023/07/14 00:24:24;;;;;;;4.53;2.97;;;16.40;7.90;;;;;;5047473;28;20191;-66
2023/07/14 00:26:56;;;;;;;4.47;2.63;;;16.40;12.70;;;;;;5060793;28;20532;-66
2023/07/14 00:29:38;;;;;;;2.97;2.77;;;16.40;11.80;;;;;;5066124;28;20280;-66
2023/07/14 00:32:16;;;;;;;3.50;3.13;;;16.50;15.00;;;;;;5053650;28;20250;-66
2023/07/14 00:34:45;;;;;;;3.20;2.90;;;16.50;14.90;;;;;;5065865;28;20218;-65
2023/07/14 00:37:14;;;;;;;3.77;2.80;;;16.50;14.00;;;;;;5055517;28;20236;-66
2023/07/14 00:39:43;;;;;;;3.23;2.70;;;16.40;12.30;;;;;;5061565;28;20210;-66
2023/07/14 00:42:14;;;;;;;4.70;3.17;;;16.30;9.50;;;;;;5055920;28;20213;-65
2023/07/14 00:44:44;;;;;;;3.50;3.00;;;16.30;13.20;;;;;;5055127;28;20204;-66
2023/07/14 00:47:20;;;;;;;4.57;2.80;;;16.30;17.70;;;;;;5062388;28;20355;-66
2023/07/14 00:49:50;;;;;;;4.23;2.77;;;16.30;21.50;;;;;;5051002;28;20223;-66
2023/07/14 00:52:23;;;;;;;3.53;2.83;;;16.20;26.30;;;;;;5063244;28;20195;-66
2023/07/14 00:54:52;;;;;;;6.13;3.00;;;16.30;24.90;;;;;;5061937;28;20199;-66
2023/07/14 00:57:25;;;;;;;5.67;3.23;;;16.30;28.20;;;;;;5069950;28;20192;-66
2023/07/14 01:00:00;;;;;;;6.57;2.90;;;16.20;21.20;;;;;;5061834;28;20221;-66
2023/07/14 01:02:29;;;;;;;7.10;3.27;;;16.20;22.20;;;;;;5054712;28;20259;-66
2023/07/14 01:05:00;;;;;;;4.17;3.10;;;16.20;22.40;;;;;;5053454;28;20200;-65
2023/07/14 01:07:32;;;;;;;4.80;2.93;;;16.20;28.20;;;;;;5069408;28;20203;-65
2023/07/14 01:10:03;;;;;;;3.70;3.40;;;16.20;19.80;;;;;;5060994;28;20634;-65
2023/07/14 01:12:35;;;;;;;5.43;3.23;;;16.20;20.90;;;;;;5060528;28;20735;-65
2023/07/14 01:15:07;;;;;;;6.27;3.13;;;16.10;22.70;;;;;;5054161;28;20197;-65
2023/07/14 01:17:37;;;;;;;4.73;3.47;;;16.10;19.40;;;;;;5050979;28;20197;-65
2023/07/14 01:20:09;;;;;;;4.43;3.43;;;16.00;27.80;;;;;;5066129;28;20736;-65
2023/07/14 01:22:46;;;;;;;4.13;3.07;;;15.90;25.60;;;;;;5067493;28;20648;-66
2023/07/14 01:25:24;;;;;;;5.73;3.50;;;15.90;27.20;;;;;;5058888;28;20193;-65
2023/07/14 01:27:54;;;;;;;6.33;3.53;;;15.80;29.60;;;;;;5060119;28;20292;-65
2023/07/14 01:30:24;;;;;;;3.67;3.13;;;15.70;35.90;;;;;;5057657;28;20558;-66
2023/07/14 01:32:53;;;;;;;5.17;3.63;;;15.70;38.00;;;;;;5052101;28;20260;-66
2023/07/14 01:35:26;;;;;;;4.90;3.67;;;15.60;40.90;;;;;;5055856;28;20236;-66
2023/07/14 01:37:55;;;;;;;8.40;3.60;;;15.50;47.60;;;;;;5050340;28;20203;-66
2023/07/14 01:40:24;;;;;;;9.07;3.63;;;15.50;52.20;;;;;;5055138;28;20574;-66
2023/07/14 01:42:57;;;;;;;6.50;3.70;;;15.40;51.00;;;;;;5067726;28;20281;-66
2023/07/14 01:45:30;;;;;;;7.10;3.70;;;15.40;55.80;;;;;;5057547;28;20527;-66
2023/07/14 01:48:02;;;;;;;5.30;3.80;;;15.40;56.20;;;;;;5056866;28;20325;-66
2023/07/14 01:50:33;;;;;;;8.37;3.90;;;15.40;57.70;;;;;;5063964;28;20654;-66
2023/07/14 01:53:20;;;;;;;5.93;3.90;;;15.30;58.60;;;;;;5058145;28;20209;-66
2023/07/14 01:55:50;;;;;;;10.67;4.67;;;15.30;59.60;;;;;;5054626;28;20205;-65
2023/07/14 01:58:24;;;;;;;7.00;3.90;;;15.30;61.10;;;;;;5055299;28;20200;-65
2023/07/14 02:00:54;;;;;;;14.57;4.30;;;15.20;65.30;;;;;;5060248;28;20769;-66
2023/07/14 02:03:30;;;;;;;9.50;4.50;;;15.20;66.50;;;;;;5053119;28;20202;-66
2023/07/14 02:06:00;;;;;;;7.13;4.00;;;15.10;69.10;;;;;;5051021;28;20193;-66
2023/07/14 02:08:28;;;;;;;7.63;3.67;;;15.10;71.30;;;;;;5061944;28;20197;-65
2023/07/14 02:10:57;;;;;;;9.03;4.47;;;15.10;75.20;;;;;;5063974;28;20191;-66
2023/07/14 02:13:28;;;;;;;6.60;4.20;;;15.10;78.00;;;;;;5058981;28;20190;-65
2023/07/14 02:15:57;;;;;;;8.03;4.47;;;15.10;79.60;;;;;;5047070;28;20196;-66
2023/07/14 02:18:29;;;;;;;6.53;4.67;;;15.00;83.60;;;;;;5055221;28;20265;-66
2023/07/14 02:20:59;;;;;;;7.47;4.30;;;15.00;88.70;;;;;;5040898;28;20237;-66
2023/07/14 02:23:29;;;;;;;8.03;4.10;;;15.00;88.00;;;;;;5058109;28;20210;-67
2023/07/14 02:26:08;;;;;;;10.00;4.40;;;15.00;90.60;;;;;;5055413;28;20259;-66
2023/07/14 02:28:38;;;;;;;5.80;4.07;;;15.00;90.70;;;;;;5066524;28;20201;-66
2023/07/14 02:31:14;;;;;;;10.40;4.37;;;15.00;90.30;;;;;;5081972;28;20198;-66
2023/07/14 02:33:46;;;;;;;9.73;4.30;;;15.00;91.40;;;;;;5056443;28;20259;-67
2023/07/14 02:36:25;;;;;;;6.87;4.20;;;15.00;88.90;;;;;;5071265;28;20639;-66
2023/07/14 02:38:55;;;;;;;6.50;4.13;;;15.00;91.00;;;;;;5065554;28;20592;-66
2023/07/14 02:41:28;;;;;;;6.40;4.27;;;15.00;91.90;;;;;;5058434;28;20268;-66
2023/07/14 02:44:03;;;;;;;5.50;4.17;;;15.00;91.70;;;;;;5070314;28;20197;-66
2023/07/14 02:46:41;;;;;;;6.43;4.00;;;15.00;92.70;;;;;;5063291;28;20760;-67
2023/07/14 02:49:10;;;;;;;8.33;4.57;;;15.00;93.80;;;;;;5059597;28;20188;-66
2023/07/14 02:51:39;;;;;;;6.83;4.23;;;15.00;92.80;;;;;;5068363;28;20212;-66
2023/07/14 02:54:08;;;;;;;9.57;4.27;;;15.00;91.80;;;;;;5065290;28;20212;-66
2023/07/14 02:56:37;;;;;;;10.47;4.37;;;15.00;92.50;;;;;;5060349;28;20198;-66
2023/07/14 02:59:10;;;;;;;10.23;4.60;;;14.90;92.30;;;;;;5054882;28;20539;-66
2023/07/14 03:01:39;;;;;;;10.97;4.87;;;14.90;93.60;;;;;;5056806;28;20332;-66
2023/07/14 03:04:09;;;;;;;5.93;3.97;;;14.90;95.30;;;;;;5061349;28;20310;-66
2023/07/14 03:06:38;;;;;;;6.80;4.30;;;14.90;94.20;;;;;;5064350;28;20192;-66
2023/07/14 03:09:06;;;;;;;7.67;4.20;;;14.90;93.60;;;;;;5061731;28;20643;-67
2023/07/14 03:11:34;;;;;;;6.90;3.90;;;14.80;94.30;;;;;;5068876;28;20194;-67
2023/07/14 03:14:04;;;;;;;5.90;4.00;;;14.70;96.10;;;;;;5069910;28;20187;-66
2023/07/14 03:16:35;;;;;;;6.57;4.50;;;14.70;98.80;;;;;;5065020;28;20666;-66
2023/07/14 03:19:04;;;;;;;6.23;4.50;;;14.70;99.70;;;;;;5072726;28;20196;-66
2023/07/14 03:21:32;;;;;;;6.63;4.70;;;14.60;99.90;;;;;;5056253;28;20201;-66
2023/07/14 03:24:01;;;;;;;8.43;4.50;;;14.60;99.90;;;;;;5071381;28;20222;-66
2023/07/14 03:26:29;;;;;;;4.77;4.30;;;14.60;99.90;;;;;;5067130;28;20193;-66
2023/07/14 03:28:57;;;;;;;8.53;4.87;;;14.60;99.90;;;;;;5070837;28;20197;-66
2023/07/14 03:31:26;;;;;;;5.30;4.27;;;14.60;99.90;;;;;;5063756;28;20271;-67
2023/07/14 03:33:56;;;;;;;11.30;4.97;;;14.70;99.90;;;;;;5058639;28;20205;-66
2023/07/14 03:36:25;;;;;;;9.23;4.77;;;14.70;99.90;;;;;;5055731;28;20277;-67
2023/07/14 03:39:21;;;;;;;8.57;4.90;;;14.70;99.90;;;;;;5055547;28;20195;-66
2023/07/14 03:41:50;;;;;;;10.03;5.03;;;14.70;99.90;;;;;;5059148;28;20217;-67
2023/07/14 03:44:18;;;;;;;5.60;4.97;;;14.80;99.90;;;;;;5047241;28;20202;-66
2023/07/14 03:46:47;;;;;;;9.20;5.03;;;14.80;99.90;;;;;;5058570;28;20218;-66
2023/07/14 03:49:19;;;;;;;7.00;5.03;;;14.80;99.90;;;;;;5053748;28;20201;-66
2023/07/14 03:51:47;;;;;;;9.57;5.07;;;14.70;99.90;;;;;;5056539;28;20619;-66
2023/07/14 03:54:16;;;;;;;8.47;4.80;;;14.70;99.90;;;;;;5074744;28;20695;-66
2023/07/14 03:56:44;;;;;;;10.20;5.10;;;14.70;99.90;;;;;;5063676;28;20602;-66
2023/07/14 03:59:13;;;;;;;12.63;4.47;;;14.70;99.90;;;;;;5045516;28;20194;-66
2023/07/14 04:01:42;;;;;;;8.87;4.90;;;14.70;99.90;;;;;;5062082;28;20193;-66
2023/07/14 04:04:10;;;;;;;12.37;5.00;;;14.70;99.90;;;;;;5071447;28;20194;-66
2023/07/14 04:06:40;;;;;;;11.63;4.80;;;14.70;99.90;;;;;;5062095;28;20280;-66
2023/07/14 04:09:08;;;;;;;8.40;5.37;;;14.70;99.90;;;;;;5054775;28;20748;-67
2023/07/14 04:11:37;;;;;;;9.73;5.10;;;14.70;99.90;;;;;;5044681;28;20200;-67
2023/07/14 04:14:07;;;;;;;10.97;5.20;;;14.70;99.90;;;;;;5062612;28;20184;-66
2023/07/14 04:16:36;;;;;;;10.80;5.33;;;14.70;99.90;;;;;;5062573;28;20225;-66
2023/07/14 04:19:05;;;;;;;8.97;4.57;;;14.70;99.90;;;;;;5064917;28;20573;-66
2023/07/14 04:21:33;;;;;;;7.80;4.50;;;14.70;99.90;;;;;;5065384;28;20211;-66
2023/07/14 04:24:03;;;;;;;13.47;5.07;;;14.80;99.90;;;;;;5061523;28;20248;-66
2023/07/14 04:26:32;;;;;;;9.33;4.63;;;14.90;99.90;;;;;;5071502;28;20676;-66
2023/07/14 04:29:00;;;;;;;10.13;4.97;;;14.90;99.90;;;;;;5064557;28;20199;-66
2023/07/14 04:31:29;;;;;;;9.20;5.30;;;15.00;99.90;;;;;;5060466;28;20196;-66
2023/07/14 04:33:57;;;;;;;7.43;4.70;;;15.00;99.90;;;;;;5063387;28;20304;-66
2023/07/14 04:36:25;;;;;;;12.53;5.10;;;15.10;99.90;;;;;;5063656;28;20198;-66
2023/07/14 04:39:05;;;;;;;10.70;4.80;;;15.10;99.90;;;;;;5062242;28;20194;-67
2023/07/14 04:41:34;;;;;;;10.90;5.00;;;15.20;99.90;;;;;;5055095;28;20191;-66
2023/07/14 04:44:06;;;;;;;11.60;5.37;;;15.30;99.00;;;;;;5064361;28;20213;-66
2023/07/14 04:46:34;;;;;;;11.47;5.00;;;15.30;97.00;;;;;;5065862;28;20290;-66
2023/07/14 04:49:03;;;;;;;9.07;4.87;;;15.40;98.00;;;;;;5067312;28;20201;-66
2023/07/14 04:51:32;;;;;;;10.43;4.83;;;15.40;96.10;;;;;;5062007;28;20191;-67
2023/07/14 04:54:00;;;;;;;12.70;4.40;;;15.50;95.30;;;;;;5058130;28;20199;-66
2023/07/14 04:56:30;;;;;;;9.17;4.53;;;15.50;94.80;;;;;;5068705;28;20210;-67
2023/07/14 04:58:58;;;;;;;8.33;4.77;;;15.60;89.70;;;;;;5062646;28;20189;-66
2023/07/14 05:01:28;;;;;;;9.23;4.47;;;15.60;86.30;;;;;;5056093;28;20195;-66
2023/07/14 05:03:56;;;;;;;8.50;4.40;;;15.70;83.30;;;;;;5068652;28;20221;-66
2023/07/14 05:06:25;;;;;;;9.03;4.90;;;15.80;77.20;;;;;;5054886;28;20218;-67
2023/07/14 05:08:53;;;;;;;11.10;4.70;;;15.80;70.10;;;;;;5063806;28;20205;-66
2023/07/14 05:11:21;;;;;;;8.00;4.10;;;15.90;63.60;;;;;;5059633;28;20902;-66
2023/07/14 05:13:53;;;;;;;10.67;4.73;;;16.10;71.80;;;;;;5066713;28;20180;-66
2023/07/14 05:16:22;;;;;;;7.73;4.50;;;16.20;50.20;;;;;;5060549;28;20202;-66
2023/07/14 05:18:50;;;;;;;8.20;4.13;;;16.20;47.10;;;;;;5062237;28;20848;-66
2023/07/14 05:21:18;;;;;;;9.73;3.77;;;16.30;46.00;;;;;;5056833;28;20197;-66
2023/07/14 05:23:47;;;;;;;7.97;4.00;;;16.30;46.10;;;;;;5056018;28;20214;-66
2023/07/14 05:26:15;;;;;;;11.80;4.60;;;16.40;41.50;;;;;;5067556;28;20580;-66
2023/07/14 05:28:44;;;;;;;9.97;4.23;;;16.50;32.60;;;;;;5051963;28;20189;-66
2023/07/14 05:31:14;;;;;;;10.07;4.33;;;16.60;29.70;;;;;;5051612;28;20200;-66
2023/07/14 05:33:42;;;;;;;9.20;4.10;;;16.60;16.30;;;;;;5055292;28;20250;-66
2023/07/14 05:36:11;;;;;;;8.40;4.63;;;16.70;21.90;;;;;;5056786;28;20207;-67
2023/07/14 05:38:40;;;;;;;6.47;3.70;;;16.80;13.70;;;;;;5052478;28;20609;-67
2023/07/14 05:41:08;;;;;;;8.23;4.20;;;17.10;25.70;;;;;;5064220;28;20219;-66
2023/07/14 05:43:37;;;;;;;6.87;3.70;;;17.20;4.70;;;;;;5060719;28;20207;-66
2023/07/14 05:46:05;;;;;;;4.73;3.70;;;17.30;1.00;;;;;;5061324;28;20216;-66
2023/07/14 05:48:35;;;;;;;10.70;4.23;;;17.30;1.00;;;;;;5060895;28;20247;-66
2023/07/14 05:51:04;;;;;;;6.70;3.93;;;17.20;1.00;;;;;;5057721;28;20196;-66
2023/07/14 05:53:32;;;;;;;6.47;4.00;;;17.20;1.00;;;;;;5062782;28;20193;-66
2023/07/14 05:56:01;;;;;;;8.10;3.80;;;17.10;2.70;;;;;;5059090;28;20196;-66
2023/07/14 05:58:29;;;;;;;11.47;4.13;;;17.00;5.30;;;;;;5058656;28;20542;-66
2023/07/14 06:00:57;;;;;;;9.97;4.10;;;17.10;3.40;;;;;;5055738;28;20211;-66
2023/07/14 06:03:26;;;;;;;6.63;3.77;;;17.20;4.20;;;;;;5059001;28;20223;-66
2023/07/14 06:05:56;;;;;;;10.73;4.00;;;17.10;1.00;;;;;;5055845;28;20199;-66
2023/07/14 06:08:24;;;;;;;7.40;3.80;;;17.10;9.10;;;;;;5064895;28;20542;-66
2023/07/14 06:10:53;;;;;;;7.23;4.43;;;17.20;4.50;;;;;;5064969;28;20192;-66
2023/07/14 06:13:21;;;;;;;5.67;3.83;;;17.20;1.00;;;;;;5060379;28;20286;-66
2023/07/14 06:15:50;;;;;;;9.80;4.33;;;17.10;1.00;;;;;;5062160;28;20282;-66
2023/07/14 06:18:19;;;;;;;8.23;4.03;;;17.20;5.50;;;;;;5072663;28;20190;-66
2023/07/14 06:20:47;;;;;;;9.07;3.93;;;17.20;10.70;;;;;;5068397;28;20192;-66
2023/07/14 06:23:17;;;;;;;7.87;3.97;;;17.20;1.00;;;;;;5062845;28;20260;-66
2023/07/14 06:25:46;;;;;;;7.87;3.70;;;17.10;1.00;;;;;;5073681;28;20192;-67
2023/07/14 06:28:14;;;;;;;6.20;3.80;;;17.20;1.00;;;;;;5059950;28;20193;-67
2023/07/14 06:30:42;;;;;;;9.60;3.70;;;17.20;1.00;;;;;;5061693;28;20216;-66
2023/07/14 06:33:12;;;;;;;4.97;3.70;;;17.20;1.00;;;;;;5061117;28;20199;-66
2023/07/14 06:35:41;;;;;;;10.93;3.93;;;17.30;1.00;;;;;;5049643;28;20275;-66
2023/07/14 06:38:10;;;;;;;8.77;4.30;;;17.30;1.00;;;;;;5070621;28;20642;-66
2023/07/14 06:40:40;;;;;;;8.80;3.67;;;17.40;1.00;;;;;;5046234;28;20196;-66
2023/07/14 06:43:09;;;;;;;8.77;3.90;;;17.60;1.00;;;;;;5064268;28;20203;-66
2023/07/14 06:45:37;;;;;;;9.50;3.73;;;17.80;1.00;;;;;;5062948;28;20192;-67
2023/07/14 06:48:06;;;;;;;5.53;2.97;;;18.40;1.00;;;;;;5065326;28;20228;-67
2023/07/14 06:50:37;;;;;;;9.83;3.30;;;19.00;1.00;;;;;;5074030;28;20191;-67
2023/07/14 06:53:06;;;;;;;7.47;3.43;;;19.50;1.00;;;;;;5059835;28;20656;-67
2023/07/14 06:55:36;;;;;;;7.27;3.10;;;19.80;1.00;;;;;;5061708;28;20193;-66
2023/07/14 06:58:07;;;;;;;11.10;3.33;;;19.90;1.00;;;;;;5057303;28;20192;-66
2023/07/14 07:00:36;;;;;;;10.87;3.30;;;20.20;1.00;;;;;;5045397;28;20204;-66
2023/07/14 07:03:05;;;;;;;13.63;3.20;;;20.30;1.00;;;;;;5053915;28;20193;-67
2023/07/14 07:05:38;;;;;;;8.07;3.50;;;20.50;1.00;;;;;;5053159;28;20559;-66
2023/07/14 07:08:10;;;;;;;4.53;3.30;;;20.70;1.00;;;;;;5059968;28;20188;-66
2023/07/14 07:10:40;;;;;;;10.13;2.53;;;20.60;1.00;;;;;;5056349;28;20854;-67
2023/07/14 07:13:10;;;;;;;6.77;3.40;;;20.60;1.00;;;;;;5061813;28;20207;-67
2023/07/14 07:15:38;;;;;;;5.00;3.07;;;20.70;1.00;;;;;;5054120;28;20642;-67
2023/07/14 07:18:07;;;;;;;8.40;3.70;;;20.70;1.00;;;;;;5062533;28;20687;-66
2023/07/14 07:20:37;;;;;;;4.40;2.93;;;20.70;1.00;;;;;;5063886;28;20198;-66
2023/07/14 07:23:06;;;;;;;6.97;3.10;;;20.90;1.00;;;;;;5064492;28;20292;-66
2023/07/14 07:25:35;;;;;;;5.00;3.67;;;21.20;1.00;;;;;;5058257;28;20217;-66
2023/07/14 07:28:04;;;;;;;5.27;3.63;;;21.30;1.00;;;;;;5062817;28;20199;-67
2023/07/14 07:30:35;;;;;;;5.67;3.43;;;21.20;1.00;;;;;;5070020;28;20193;-66
2023/07/14 07:33:04;;;;;;;5.70;3.47;;;21.40;1.00;;;;;;5057132;28;20242;-66
2023/07/14 07:35:33;;;;;;;3.80;3.40;;;22.20;99.90;;;;;;5057849;28;20719;-66
2023/07/14 07:38:02;;;;;;;6.67;3.77;;;22.60;13.40;;;;;;5045052;28;20214;-65
2023/07/14 07:40:31;;;;;;;8.60;3.67;;;22.60;86.10;;;;;;5047313;28;20199;-66
2023/07/14 07:43:01;;;;;;;5.43;3.83;;;22.70;1.00;;;;;;5050369;28;20223;-67
2023/07/14 07:45:29;;;;;;;6.40;4.13;;;22.80;1.00;;;;;;5056433;28;20211;-66
2023/07/14 07:47:59;;;;;;;4.90;3.40;;;22.90;1.00;;;;;;5061684;28;20605;-66
2023/07/14 07:50:28;;;;;;;4.43;3.00;;;22.90;1.00;;;;;;5062919;28;20204;-66
2023/07/14 07:52:56;;;;;;;2.90;2.60;;;22.90;1.00;;;;;;5059475;28;20304;-66
2023/07/14 07:55:25;;;;;;;4.27;2.40;;;23.50;1.00;;;;;;5058867;28;20671;-67
2023/07/14 07:57:55;;;;;;;2.70;2.47;;;24.20;99.90;;;;;;5067462;28;20188;-66
2023/07/14 08:00:25;;;;;;;2.50;2.30;;;24.40;1.00;;;;;;5060698;28;20547;-66
2023/07/14 08:02:53;;;;;;;2.87;2.67;;;24.30;99.90;;;;;;5067965;28;20192;-66
2023/07/14 08:05:24;;;;;;;4.43;2.57;;;24.40;67.90;;;;;;5062785;28;20217;-66
2023/07/14 08:07:52;;;;;;;5.50;2.60;;;24.10;99.90;;;;;;5071257;28;20196;-66
2023/07/14 08:10:21;;;;;;;3.67;2.30;;;23.90;99.90;;;;;;5064344;28;20185;-67
2023/07/14 08:12:52;;;;;;;4.47;2.57;;;23.80;1.00;;;;;;5068017;28;20203;-67
2023/07/14 08:15:21;;;;;;;4.00;2.43;;;23.60;99.90;;;;;;5061137;28;20210;-66
2023/07/14 08:17:56;;;;;;;2.63;2.43;;;23.00;1.00;;;;;;5053357;28;20669;-66
2023/07/14 08:20:26;;;;;;;6.53;2.40;;;22.80;1.00;;;;;;5060854;28;20210;-66
2023/07/14 08:22:54;;;;;;;3.50;2.60;;;22.80;99.90;;;;;;5056447;28;20212;-66
2023/07/14 08:25:23;;;;;;;5.30;2.60;;;22.90;1.00;;;;;;5056201;28;20210;-66
2023/07/14 08:27:52;;;;;;;2.57;2.37;;;23.30;1.00;;;;;;5054703;28;20197;-66
2023/07/14 08:30:21;;;;;;;5.40;2.60;;;23.60;99.90;;;;;;5054641;28;20848;-67
2023/07/14 08:32:49;;;;;;;4.83;2.60;;;23.60;1.00;;;;;;5055859;28;20279;-66
2023/07/14 08:35:18;;;;;;;4.20;2.53;;;23.70;1.00;;;;;;5055889;28;20208;-66
2023/07/14 08:37:48;;;;;;;3.57;2.53;;;23.70;1.00;;;;;;5052682;28;20674;-66
2023/07/14 08:40:20;;;;;;;4.80;2.90;;;23.90;1.00;;;;;;5057211;28;20197;-67
2023/07/14 08:43:06;;;;;;;3.67;2.30;;;24.40;1.00;;;;;;5063347;28;20180;-66
2023/07/14 08:45:38;;;;;;;2.70;2.40;;;24.80;99.90;;;;;;5059590;28;20219;-66
2023/07/14 08:48:24;;;;;;;5.57;2.63;;;25.20;1.00;;;;;;5063950;28;20626;-66
2023/07/14 08:50:56;;;;;;;2.47;2.20;;;25.20;1.00;;;;;;5070521;28;20192;-66
2023/07/14 08:53:29;;;;;;;4.63;2.40;;;24.80;99.90;;;;;;5061220;28;20191;-66
2023/07/14 08:56:03;;;;;;;4.90;2.70;;;24.40;99.90;;;;;;5068221;28;20184;-66
2023/07/14 08:58:38;;;;;;;2.60;2.30;;;24.00;99.90;;;;;;5047154;28;20198;-66
2023/07/14 09:01:19;;;;;;;4.77;2.30;;;23.80;1.00;;;;;;5055206;28;20192;-67
2023/07/14 09:03:51;;;;;;;2.20;2.10;;;24.00;1.00;;;;;;5057422;28;20184;-66
2023/07/14 09:06:26;;;;;;;4.33;2.60;;;23.80;1.00;;;;;;5057563;28;20200;-66
2023/07/14 09:08:57;;;;;;;2.77;2.53;;;24.30;99.90;;;;;;5063707;28;20204;-66
2023/07/14 09:11:38;;;;;;;3.33;2.13;;;24.40;99.90;;;;;;5074455;28;20654;-67
2023/07/14 09:14:16;;;;;;;2.23;2.13;;;24.10;99.90;;;;;;5061052;28;20567;-66
2023/07/14 09:16:54;;;;;;;2.40;2.20;;;24.00;99.90;;;;;;5055754;28;20227;-66
2023/07/14 09:19:39;;;;;;;3.33;2.33;;;23.70;99.90;;;;;;5064194;28;20744;-66
2023/07/14 09:22:15;;;;;;;2.30;2.00;;;23.40;1.00;;;;;;5056381;28;20188;-66
2023/07/14 09:24:58;;;;;;;4.17;2.30;;;23.20;99.90;;;;;;5055312;28;20217;-66
2023/07/14 09:27:29;;;;;;;2.30;2.17;;;22.90;1.00;;;;;;5052602;28;20277;-66
2023/07/14 09:29:59;;;;;;;2.50;2.20;;;22.80;1.00;;;;;;5064024;28;20224;-66
2023/07/14 09:32:34;;;;;;;4.17;2.20;;;22.90;1.00;;;;;;5055719;28;20600;-66
2023/07/14 09:35:09;;;;;;;1.90;1.90;;;23.00;1.00;;;;;;5064979;28;20197;-66
2023/07/14 09:37:44;;;;;;;4.53;2.10;;;23.10;1.00;;;;;;5065275;28;20633;-66
2023/07/14 09:40:21;;;;;;;2.93;2.20;;;23.30;1.00;;;;;;5062794;28;20697;-66
2023/07/14 09:42:52;;;;;;;2.60;2.40;;;23.50;1.00;;;;;;5079082;28;20217;-66
2023/07/14 09:45:23;;;;;;;4.17;1.80;;;23.70;1.00;;;;;;5065789;28;20195;-66
2023/07/14 09:47:57;;;;;;;5.37;2.27;;;23.90;1.00;;;;;;5065048;28;20228;-66
2023/07/14 09:50:26;;;;;;;3.43;2.20;;;24.00;99.90;;;;;;5066364;28;20793;-66
2023/07/14 09:52:57;;;;;;;3.50;2.13;;;24.20;1.00;;;;;;5064848;28;20202;-66
2023/07/14 09:55:28;;;;;;;5.67;2.60;;;24.20;1.00;;;;;;5066473;28;20189;-66
2023/07/14 09:57:57;;;;;;;3.73;2.30;;;24.20;99.90;;;;;;5062348;28;20210;-65
2023/07/14 10:00:41;;;;;;;5.13;2.40;;;24.00;1.00;;;;;;5054363;28;20188;-66
2023/07/14 10:03:15;;;;;;;3.83;2.20;;;24.00;1.00;;;;;;5067350;28;20765;-66
2023/07/14 10:05:49;;;;;;;2.17;2.07;;;24.10;1.00;;;;;;5060159;28;20273;-66
2023/07/14 10:08:29;;;;;;;3.40;2.07;;;24.10;99.90;;;;;;5055479;28;20534;-66
2023/07/14 10:11:05;;;;;;;6.97;2.37;;;24.20;1.00;;;;;;5051360;28;20528;-66
2023/07/14 10:13:37;;;;;;;3.67;2.60;;;24.50;99.90;;;;;;5055617;28;20207;-66
2023/07/14 10:16:14;;;;;;;3.03;2.23;;;25.10;99.90;;;;;;5049035;28;20188;-66
2023/07/14 10:18:48;;;;;;;2.43;2.20;;;25.60;99.90;;;;;;5058526;28;20192;-66
2023/07/14 10:21:24;;;;;;;2.40;2.20;;;25.70;99.90;;;;;;5065582;28;20241;-66
2023/07/14 10:24:05;;;;;;;2.37;2.20;;;25.80;99.90;;;;;;5065744;28;20647;-66
2023/07/14 10:26:39;;;;;;;2.00;1.90;;;25.60;99.90;;;;;;5058948;28;20223;-66
2023/07/14 10:29:16;;;;;;;4.13;2.40;;;25.70;99.90;;;;;;5061031;28;20207;-66
2023/07/14 10:31:48;;;;;;;2.30;2.20;;;26.20;99.90;;;;;;5057284;28;20945;-66
2023/07/14 10:34:46;;;;;;;2.90;2.13;;;26.50;99.90;;;;;;5053875;28;20199;-66
2023/07/14 10:37:24;;;;;;;7.17;2.40;;;26.50;99.90;;;;;;5039016;28;20201;-66
2023/07/14 10:39:58;;;;;;;3.03;2.37;;;26.50;99.90;;;;;;5067047;28;20533;-65
2023/07/14 10:42:33;;;;;;;2.35;2.15;;;26.60;99.90;;;;;;5065258;28;20294;-66
2023/07/14 10:45:02;;;;;;;4.20;2.17;;;26.80;99.90;;;;;;5061343;28;20199;-66
2023/07/14 10:47:34;;;;;;;2.55;2.20;;;27.10;99.90;;;;;;5081433;28;20325;-66
2023/07/14 10:50:13;;;;;;;3.13;2.05;;;27.10;99.90;;;;;;5054827;28;20721;-66
2023/07/14 10:52:45;;;;;;;2.55;2.17;;;27.40;99.90;;;;;;5052386;28;20202;-66
2023/07/14 10:55:20;;;;;;;4.68;2.20;;;28.20;99.90;;;;;;5067035;28;20271;-67
2023/07/14 10:57:57;;;;;;;4.55;2.08;;;28.20;99.90;;;;;;5061910;28;20198;-65
2023/07/14 11:00:33;;;;;;;2.00;1.90;;;27.90;99.90;;;;;;5048791;28;20684;-66
2023/07/14 11:03:18;;;;;;;2.70;1.90;;;28.20;99.90;;;;;;5060856;28;20199;-66
2023/07/14 11:05:55;;;;;;;1.98;1.80;;;28.00;99.90;;;;;;5057458;28;20217;-66
2023/07/14 11:08:25;;;;;;;4.22;2.20;;;27.30;99.90;;;;;;5045768;28;20277;-66
2023/07/14 11:11:00;;;;;;;4.13;2.33;;;27.30;99.90;;;;;;5062493;28;20552;-66
2023/07/14 11:13:41;;;;;;;2.65;2.15;;;27.20;99.90;;;;;;5058351;28;20830;-65
2023/07/14 11:16:12;;;;;;;3.25;2.28;;;27.00;99.90;;;;;;5058712;28;20281;-65
2023/07/14 11:18:49;;;;;;;3.25;2.00;;;26.90;99.90;;;;;;5061556;28;20268;-66
2023/07/14 11:21:27;;;;;;;2.83;2.05;;;26.70;99.90;;;;;;5056232;28;20655;-65
2023/07/14 11:24:19;;;;;;;2.30;2.20;;;26.60;99.90;;;;;;5064826;28;20537;-65
2023/07/14 11:27:11;;;;;;;2.70;2.13;;;26.50;99.90;;;;;;5065990;28;20200;-65
2023/07/14 11:29:48;;;;;;;6.20;2.00;;;26.30;99.90;;;;;;5052816;28;20188;-65
2023/07/14 11:32:20;;;;;;;5.23;2.30;;;26.20;99.90;;;;;;5065518;28;20196;-65
2023/07/14 11:35:01;;;;;;;4.43;2.50;;;26.00;99.90;;;;;;5066417;28;20195;-65
2023/07/14 11:37:57;;;;;;;2.43;2.33;;;26.00;99.90;;;;;;5062508;28;20195;-65
2023/07/14 11:40:26;;;;;;;1.80;1.70;;;26.00;99.90;;;;;;5060705;28;20630;-65
2023/07/14 11:42:58;;;;;;;3.03;2.13;;;26.30;99.90;;;;;;5056003;28;20223;-65
2023/07/14 11:45:33;;;;;;;2.40;2.10;;;26.80;99.90;;;;;;5053848;28;20211;-65
2023/07/14 11:48:02;;;;;;;1.70;1.70;;;27.30;99.90;;;;;;5054314;28;20771;-65
2023/07/14 11:50:33;;;;;;;3.97;2.30;;;27.50;99.90;;;;;;5054175;28;20536;-65
2023/07/14 11:53:19;;;;;;;2.10;2.00;;;27.30;99.90;;;;;;5041823;28;20650;-65
2023/07/14 11:55:51;;;;;;;1.85;1.70;;;27.20;99.90;;;;;;5050921;28;20284;-65
2023/07/14 11:58:26;;;;;;;2.20;1.90;;;27.10;99.90;;;;;;5064216;28;20191;-64
2023/07/14 12:00:59;;;;;;;6.20;2.10;;;26.90;99.90;;;;;;5052390;28;20204;-65
2023/07/14 12:03:32;;;;;;;2.17;2.07;;;26.80;99.90;;;;;;5060785;28;20194;-65
2023/07/14 12:06:24;;;;;;;2.07;1.90;;;26.80;99.90;;;;;;5056344;28;20188;-65
2023/07/14 12:09:12;;;;;;;2.20;2.10;;;26.90;99.90;;;;;;5054366;28;20200;-64
2023/07/14 12:11:53;;;;;;;2.23;2.03;;;27.00;99.90;;;;;;5060611;28;20546;-66
2023/07/14 12:14:41;;;;;;;2.43;2.17;;;27.10;99.90;;;;;;5064535;28;20189;-65
2023/07/14 12:17:43;;;;;;;2.33;2.23;;;27.00;99.90;;;;;;5060022;28;20216;-65
2023/07/14 12:20:28;;;;;;;2.60;2.40;;;26.80;99.90;;;;;;5043160;28;20193;-65
2023/07/14 12:23:18;;;;;;;2.70;2.50;;;26.70;99.90;;;;;;5053489;28;20200;-65
2023/07/14 12:25:52;;;;;;;2.53;2.33;;;26.50;99.90;;;;;;5058999;28;20194;-65
2023/07/14 12:28:27;;;;;;;2.73;2.50;;;26.50;99.90;;;;;;5054661;28;20205;-65
2023/07/14 12:30:55;;;;;;;3.17;2.33;;;26.50;99.90;;;;;;5061627;28;20204;-65
2023/07/14 12:33:26;;;;;;;2.70;2.50;;;26.40;99.90;;;;;;5065651;28;20215;-64
2023/07/14 12:35:54;;;;;;;3.43;2.57;;;26.20;99.90;;;;;;5075748;28;20243;-65
2023/07/14 12:38:25;;;;;;;3.90;2.60;;;26.20;99.90;;;;;;5062173;28;20735;-65
2023/07/14 12:40:55;;;;;;;2.60;2.40;;;26.10;99.90;;;;;;5052197;28;20272;-65
2023/07/14 12:43:32;;;;;;;3.43;2.43;;;26.00;99.90;;;;;;5064852;28;20187;-64
2023/07/14 12:46:03;;;;;;;3.13;2.27;;;26.10;99.90;;;;;;5062866;28;20287;-61
2023/07/14 12:48:34;;;;;;;3.60;2.83;;;26.20;99.90;;;;;;5059811;28;20561;-63
2023/07/14 12:51:14;;;;;;;3.73;2.60;;;26.30;99.90;;;;;;5060836;28;20176;-64
2023/07/14 12:53:43;;;;;;;2.30;2.10;;;26.30;99.90;;;;;;5060178;28;20193;-67
2023/07/14 12:56:15;;;;;;;2.60;2.50;;;26.30;99.90;;;;;;5058123;28;20215;-67
2023/07/14 12:58:44;;;;;;;4.67;2.60;;;26.20;99.90;;;;;;5059468;28;20524;-67
2023/07/14 13:01:17;;;;;;;3.80;2.40;;;26.20;99.90;;;;;;5044985;28;20199;-67
2023/07/14 13:03:47;;;;;;;2.97;2.40;;;26.10;99.90;;;;;;5061649;28;20196;-67
2023/07/14 13:06:17;;;;;;;4.27;2.83;;;26.20;99.90;;;;;;5063796;28;20192;-67
2023/07/14 13:08:47;;;;;;;3.57;2.40;;;26.20;99.90;;;;;;5052492;28;20239;-67
2023/07/14 13:11:21;;;;;;;5.13;2.60;;;26.20;99.90;;;;;;5064949;28;20188;-67
2023/07/14 13:13:53;;;;;;;3.30;2.50;;;26.40;99.90;;;;;;5051819;28;20539;-67